createdAt,value
2017-11-09T00:02:02.703Z,8.44
2017-11-09T00:04:35.619Z,8.52
2017-11-09T00:07:03.047Z,8.39
2017-11-09T00:09:29.735Z,8.49
2017-11-09T00:11:56.430Z,8.52
2017-11-09T00:14:23.096Z,8.47
2017-11-09T00:16:50.521Z,8.49
2017-11-09T00:19:17.201Z,8.26
2017-11-09T00:21:44.616Z,8.12
2017-11-09T00:24:11.356Z,8.15
2017-11-09T00:26:38.089Z,8.09
2017-11-09T00:29:04.755Z,8.04
2017-11-09T00:31:31.459Z,7.95
2017-11-09T00:33:58.168Z,8.03
2017-11-09T00:36:24.871Z,8.07
2017-11-09T00:38:51.528Z,8.04
2017-11-09T00:41:18.280Z,8.10
2017-11-09T00:43:44.949Z,8.05
2017-11-09T00:46:12.354Z,8.04
2017-11-09T00:48:39.022Z,8.04
2017-11-09T00:51:05.691Z,8.09
2017-11-09T00:53:33.106Z,8.11
2017-11-09T00:55:59.811Z,8.05
2017-11-09T00:58:26.497Z,8.06
2017-11-09T01:00:53.186Z,7.95
2017-11-09T01:03:20.648Z,7.84
2017-11-09T01:05:48.106Z,7.84
2017-11-09T01:08:15.526Z,7.99
2017-11-09T01:10:42.280Z,7.90
2017-11-09T01:13:08.978Z,7.98
2017-11-09T01:15:35.629Z,8.08
2017-11-09T01:18:02.350Z,8.10
2017-11-09T01:20:29.758Z,8.19
2017-11-09T01:22:56.520Z,8.22
2017-11-09T01:25:23.193Z,8.10
2017-11-09T01:27:50.628Z,7.94
2017-11-09T01:30:17.298Z,7.62
2017-11-09T01:32:44.753Z,7.58
2017-11-09T01:35:12.169Z,7.63
2017-11-09T01:37:38.911Z,7.35
2017-11-09T01:40:06.351Z,7.28
2017-11-09T01:42:33.095Z,7.42
2017-11-09T01:44:59.757Z,7.50
2017-11-09T01:47:26.485Z,7.37
2017-11-09T01:49:53.147Z,7.18
2017-11-09T01:52:19.827Z,6.93
2017-11-09T01:54:46.539Z,6.90
2017-11-09T01:57:13.233Z,6.79
2017-11-09T01:59:40.655Z,6.60
2017-11-09T02:02:07.379Z,6.63
2017-11-09T02:04:34.063Z,6.55
2017-11-09T02:07:00.751Z,6.57
2017-11-09T02:09:27.460Z,6.47
2017-11-09T02:11:54.894Z,6.46
2017-11-09T02:14:21.629Z,6.50
2017-11-09T02:16:48.379Z,6.48
2017-11-09T02:19:15.120Z,6.52
2017-11-09T02:21:42.334Z,6.55
2017-11-09T02:24:09.095Z,6.52
2017-11-09T02:26:35.799Z,6.54
2017-11-09T02:29:03.288Z,6.55
2017-11-09T02:31:30.057Z,6.63
2017-11-09T02:33:56.810Z,6.66
2017-11-09T02:36:23.557Z,6.74
2017-11-09T02:38:50.284Z,6.87
2017-11-09T02:41:17.029Z,7.15
2017-11-09T02:43:43.745Z,7.24
2017-11-09T02:46:10.463Z,7.39
2017-11-09T02:48:37.908Z,7.47
2017-11-09T02:51:04.654Z,7.50
2017-11-09T02:53:31.351Z,7.53
2017-11-09T02:55:58.089Z,7.57
2017-11-09T02:58:24.914Z,7.54
2017-11-09T03:00:51.589Z,7.52
2017-11-09T03:03:18.294Z,7.44
2017-11-09T03:05:45.698Z,7.53
2017-11-09T03:08:12.432Z,7.58
2017-11-09T03:10:39.109Z,7.55
2017-11-09T03:13:05.780Z,7.52
2017-11-09T03:15:33.248Z,7.55
2017-11-09T03:18:00.636Z,7.68
2017-11-09T03:20:27.313Z,7.80
2017-11-09T03:22:54.012Z,7.89
2017-11-09T03:25:20.688Z,7.91
2017-11-09T03:27:47.353Z,7.86
2017-11-09T03:30:14.099Z,7.93
2017-11-09T03:32:41.543Z,7.83
2017-11-09T03:35:08.236Z,7.71
2017-11-09T03:37:34.998Z,7.63
2017-11-09T03:40:01.656Z,7.69
2017-11-09T03:42:28.332Z,7.67
2017-11-09T03:44:55.054Z,7.90
2017-11-09T03:47:23.445Z,7.88
2017-11-09T03:49:50.120Z,7.60
2017-11-09T03:52:17.564Z,7.57
2017-11-09T03:54:44.229Z,7.58
2017-11-09T03:57:10.908Z,7.63
2017-11-09T03:59:37.735Z,7.56
2017-11-09T04:02:04.448Z,7.36
2017-11-09T04:04:31.872Z,7.57
2017-11-09T04:06:58.606Z,7.51
2017-11-09T04:09:25.278Z,7.32
2017-11-09T04:11:52.272Z,7.46
2017-11-09T04:14:18.968Z,7.56
2017-11-09T04:16:45.660Z,7.52
2017-11-09T04:19:12.328Z,7.49
2017-11-09T04:21:39.115Z,7.55
2017-11-09T04:24:05.793Z,7.67
2017-11-09T04:26:32.502Z,7.69
2017-11-09T04:28:59.949Z,7.65
2017-11-09T04:31:26.601Z,7.78
2017-11-09T04:33:53.290Z,7.82
2017-11-09T04:36:19.988Z,7.79
2017-11-09T04:38:47.435Z,7.84
2017-11-09T04:41:14.106Z,7.88
2017-11-09T04:43:40.797Z,7.79
2017-11-09T04:46:07.452Z,7.58
2017-11-09T04:48:34.129Z,7.46
2017-11-09T04:51:01.556Z,7.45
2017-11-09T04:53:28.319Z,7.30
2017-11-09T04:55:54.987Z,7.22
2017-11-09T04:58:22.414Z,7.17
2017-11-09T05:00:49.076Z,7.18
2017-11-09T05:03:16.493Z,7.18
2017-11-09T05:05:43.171Z,7.17
2017-11-09T05:08:09.825Z,7.15
2017-11-09T05:10:37.300Z,7.24
2017-11-09T05:13:03.991Z,7.19
2017-11-09T05:15:30.864Z,7.07
2017-11-09T05:17:57.514Z,7.13
2017-11-09T05:20:24.945Z,7.12
2017-11-09T05:22:51.598Z,7.11
2017-11-09T05:25:18.292Z,7.11
2017-11-09T05:27:44.973Z,7.01
2017-11-09T05:30:11.716Z,7.02
2017-11-09T05:32:38.399Z,7.00
2017-11-09T05:35:06.659Z,7.05
2017-11-09T05:37:33.324Z,7.22
2017-11-09T05:40:00.722Z,7.17
2017-11-09T05:42:27.454Z,7.11
2017-11-09T05:44:54.137Z,7.14
2017-11-09T05:47:20.841Z,7.21
2017-11-09T05:49:48.028Z,7.08
2017-11-09T05:52:14.713Z,7.18
2017-11-09T05:54:41.500Z,7.10
2017-11-09T05:57:08.216Z,7.18
2017-11-09T05:59:34.917Z,7.18
2017-11-09T06:02:01.656Z,7.25
2017-11-09T06:04:28.417Z,7.29
2017-11-09T06:06:55.164Z,7.39
2017-11-09T06:09:22.600Z,7.47
2017-11-09T06:11:50.161Z,7.53
2017-11-09T06:14:17.620Z,7.64
2017-11-09T06:16:44.330Z,7.62
2017-11-09T06:19:11.069Z,7.48
2017-11-09T06:21:37.737Z,7.51
2017-11-09T06:24:04.402Z,7.56
2017-11-09T06:26:31.079Z,7.70
2017-11-09T06:28:58.508Z,7.64
2017-11-09T06:31:25.173Z,7.69
2017-11-09T06:33:52.617Z,7.67
2017-11-09T06:36:19.349Z,7.55
2017-11-09T06:38:46.040Z,7.41
2017-11-09T06:41:12.920Z,7.23
2017-11-09T06:43:39.578Z,7.32
2017-11-09T06:46:06.284Z,7.56
2017-11-09T06:48:33.071Z,7.70
2017-11-09T06:50:59.741Z,7.72
2017-11-09T06:53:28.032Z,7.82
2017-11-09T06:55:55.459Z,7.78
2017-11-09T06:58:22.154Z,7.79
2017-11-09T07:00:48.874Z,7.90
2017-11-09T07:03:16.293Z,8.00
2017-11-09T07:05:42.977Z,8.03
2017-11-09T07:08:10.391Z,8.09
2017-11-09T07:10:37.087Z,8.22
2017-11-09T07:13:03.769Z,8.27
2017-11-09T07:15:30.428Z,8.21
2017-11-09T07:17:57.875Z,8.14
2017-11-09T07:20:25.374Z,8.27
2017-11-09T07:22:52.031Z,8.24
2017-11-09T07:25:19.503Z,8.30
2017-11-09T07:27:46.280Z,8.31
2017-11-09T07:30:13.020Z,8.32
2017-11-09T07:32:39.768Z,8.44
2017-11-09T07:35:06.526Z,8.45
2017-11-09T07:37:33.363Z,8.50
2017-11-09T07:40:00.040Z,8.55
2017-11-09T07:42:26.731Z,8.54
2017-11-09T07:44:54.496Z,8.61
2017-11-09T07:47:21.190Z,8.56
2017-11-09T07:49:48.861Z,8.69
2017-11-09T07:52:15.509Z,8.76
2017-11-09T07:54:43.822Z,9.00
2017-11-09T07:57:10.495Z,9.13
2017-11-09T07:59:37.223Z,9.31
2017-11-09T08:02:03.911Z,9.36
2017-11-09T08:04:30.596Z,9.34
2017-11-09T08:06:57.286Z,9.23
2017-11-09T08:09:23.990Z,8.99
2017-11-09T08:11:50.642Z,8.35
2017-11-09T08:14:17.781Z,8.14
2017-11-09T08:16:44.656Z,8.19
2017-11-09T08:19:11.396Z,8.05
2017-11-09T08:21:38.062Z,8.22
2017-11-09T08:24:07.901Z,8.27
2017-11-09T08:26:36.594Z,8.58
2017-11-09T08:29:06.403Z,8.77
2017-11-09T08:31:35.005Z,8.76
2017-11-09T08:34:02.420Z,8.73
2017-11-09T08:36:29.105Z,8.59
2017-11-09T08:38:56.604Z,8.57
2017-11-09T08:41:23.276Z,8.62
2017-11-09T08:43:50.141Z,8.68
2017-11-09T08:46:16.832Z,8.67
2017-11-09T08:48:43.553Z,8.64
2017-11-09T08:51:10.269Z,8.38
2017-11-09T08:53:37.740Z,8.39
2017-11-09T08:56:05.169Z,8.29
2017-11-09T08:58:31.816Z,8.66
2017-11-09T09:00:59.005Z,8.74
2017-11-09T09:03:26.428Z,8.83
2017-11-09T09:05:53.119Z,8.68
2017-11-09T09:08:20.729Z,8.79
2017-11-09T09:10:47.517Z,8.84
2017-11-09T09:13:14.967Z,8.87
2017-11-09T09:15:42.492Z,9.05
2017-11-09T09:18:09.217Z,9.13
2017-11-09T09:34:16.952Z,9.58
2017-11-09T09:36:45.783Z,9.80
2017-11-09T09:39:19.157Z,9.89
2017-11-09T09:41:46.950Z,10.03
2017-11-09T09:44:13.672Z,10.25
2017-11-09T09:46:40.442Z,10.17
2017-11-09T09:49:07.191Z,10.34
2017-11-09T09:51:34.629Z,10.19
2017-11-09T09:54:01.372Z,9.92
2017-11-09T09:56:28.065Z,9.88
2017-11-09T09:58:54.739Z,10.08
2017-11-09T10:01:21.432Z,10.09
2017-11-09T10:03:49.776Z,10.03
2017-11-09T10:06:16.442Z,10.07
2017-11-09T10:08:43.197Z,9.79
2017-11-09T10:11:10.732Z,9.56
2017-11-09T10:13:37.520Z,9.78
2017-11-09T10:16:04.970Z,9.88
2017-11-09T10:18:32.400Z,9.84
2017-11-09T10:20:59.091Z,9.94
2017-11-09T10:23:25.788Z,9.88
2017-11-09T10:25:52.486Z,10.19
2017-11-09T10:28:19.159Z,10.24
2017-11-09T10:30:45.852Z,10.55
2017-11-09T10:33:13.304Z,10.74
2017-11-09T10:35:40.759Z,11.10
2017-11-09T10:38:08.203Z,11.26
2017-11-09T10:40:34.997Z,11.46
2017-11-09T10:43:01.700Z,11.81
2017-11-09T10:45:28.403Z,12.11
2017-11-09T10:47:55.137Z,12.23
2017-11-09T10:50:21.869Z,12.44
2017-11-09T10:52:48.565Z,12.49
2017-11-09T10:55:15.260Z,12.83
2017-11-09T10:57:41.954Z,14.15
2017-11-09T11:00:08.679Z,14.81
2017-11-09T11:02:35.392Z,13.98
2017-11-09T11:05:02.105Z,13.93
2017-11-09T11:07:29.584Z,14.65
2017-11-09T11:09:56.279Z,15.21
2017-11-09T11:12:22.940Z,14.42
2017-11-09T11:14:49.671Z,14.54
2017-11-09T11:17:16.336Z,14.82
2017-11-09T11:19:43.750Z,15.12
2017-11-09T11:22:10.429Z,15.56
2017-11-09T11:24:37.872Z,15.39
2017-11-09T11:27:04.585Z,15.16
2017-11-09T11:29:31.276Z,14.87
2017-11-09T11:31:57.996Z,15.05
2017-11-09T11:34:24.700Z,15.09
2017-11-09T11:36:51.387Z,14.68
2017-11-09T11:39:18.066Z,14.30
2017-11-09T11:41:45.473Z,14.32
2017-11-09T11:44:12.184Z,14.37
2017-11-09T11:46:38.929Z,14.15
2017-11-09T11:49:05.619Z,13.94
2017-11-09T11:51:32.385Z,13.41
2017-11-09T11:53:59.106Z,13.45
2017-11-09T11:56:25.782Z,13.40
2017-11-09T11:58:53.211Z,13.10
2017-11-09T12:01:19.921Z,13.06
2017-11-09T12:03:46.663Z,12.99
2017-11-09T12:06:13.411Z,13.08
2017-11-09T12:08:40.066Z,13.29
2017-11-09T12:11:06.855Z,12.69
2017-11-09T12:13:34.377Z,12.48
2017-11-09T12:16:01.079Z,13.10
2017-11-09T12:18:28.540Z,13.20
2017-11-09T12:20:55.987Z,13.12
2017-11-09T12:23:23.406Z,13.28
2017-11-09T12:25:50.089Z,13.43
2017-11-09T12:28:17.548Z,13.38
2017-11-09T12:30:44.219Z,13.40
2017-11-09T12:33:10.948Z,13.35
2017-11-09T12:35:37.669Z,13.21
2017-11-09T12:38:04.354Z,13.25
2017-11-09T12:40:31.095Z,12.66
2017-11-09T12:42:57.812Z,12.56
2017-11-09T12:45:25.220Z,12.23
2017-11-09T12:47:51.948Z,12.05
2017-11-09T12:50:18.632Z,12.07
2017-11-09T12:52:45.701Z,12.02
2017-11-09T12:55:12.439Z,12.20
2017-11-09T12:57:39.154Z,12.30
2017-11-09T13:00:05.945Z,11.98
2017-11-09T13:02:33.401Z,11.90
2017-11-09T13:05:00.085Z,11.80
2017-11-09T13:07:26.788Z,11.60
2017-11-09T13:09:53.527Z,11.34
2017-11-09T13:12:20.291Z,11.21
2017-11-09T13:14:47.707Z,11.08
2017-11-09T13:17:15.181Z,10.95
2017-11-09T13:19:41.946Z,11.13
2017-11-09T13:22:09.395Z,11.16
2017-11-09T13:24:36.118Z,11.36
2017-11-09T13:27:03.727Z,11.26
2017-11-09T13:29:31.443Z,11.12
2017-11-09T13:31:58.235Z,11.00
2017-11-09T13:34:25.704Z,10.78
2017-11-09T13:36:53.159Z,10.84
2017-11-09T13:39:20.565Z,10.91
2017-11-09T13:41:47.272Z,10.90
2017-11-09T13:44:14.709Z,10.92
2017-11-09T13:46:42.159Z,10.77
2017-11-09T13:49:08.891Z,10.75
2017-11-09T13:51:35.541Z,10.93
2017-11-09T13:54:02.205Z,10.78
2017-11-09T13:56:29.826Z,10.71
2017-11-09T13:58:56.534Z,10.68
2017-11-09T14:01:23.220Z,10.65
2017-11-09T14:03:49.902Z,10.67
2017-11-09T14:06:17.371Z,10.48
2017-11-09T14:08:44.787Z,10.58
2017-11-09T14:11:11.469Z,10.63
2017-11-09T14:13:38.900Z,10.39
2017-11-09T14:16:05.585Z,10.59
2017-11-09T14:18:32.352Z,10.62
2017-11-09T14:21:00.816Z,10.63
2017-11-09T14:23:27.520Z,10.57
2017-11-09T14:25:54.213Z,10.49
2017-11-09T14:28:20.979Z,10.45
2017-11-09T14:30:47.665Z,10.52
2017-11-09T14:33:15.095Z,10.44
2017-11-09T14:35:41.832Z,10.42
2017-11-09T14:38:08.549Z,10.52
2017-11-09T14:40:37.199Z,10.28
2017-11-09T14:43:03.922Z,10.43
2017-11-09T14:45:30.570Z,10.49
2017-11-09T14:47:57.295Z,10.34
2017-11-09T14:50:23.989Z,10.34
2017-11-09T14:52:50.692Z,10.25
2017-11-09T14:55:17.409Z,10.30
2017-11-09T14:57:44.070Z,10.31
2017-11-09T15:00:10.726Z,10.33
2017-11-09T15:02:37.427Z,10.33
2017-11-09T15:05:04.097Z,10.30
2017-11-09T15:07:30.773Z,10.39
2017-11-09T15:09:57.555Z,10.39
2017-11-09T15:12:24.360Z,10.32
2017-11-09T15:14:51.071Z,10.33
2017-11-09T15:17:17.857Z,10.29
2017-11-09T15:19:44.581Z,10.19
2017-11-09T15:22:11.309Z,10.21
2017-11-09T15:24:38.919Z,10.34
2017-11-09T15:27:06.399Z,10.28
2017-11-09T15:29:33.102Z,10.10
2017-11-09T15:32:00.859Z,10.11
2017-11-09T15:34:27.655Z,10.14
2017-11-09T15:36:54.500Z,10.09
2017-11-09T15:39:21.209Z,10.18
2017-11-09T15:41:47.974Z,10.23
2017-11-09T15:44:16.306Z,10.23
2017-11-09T15:46:42.992Z,10.30
2017-11-09T15:49:10.423Z,10.28
2017-11-09T15:51:37.195Z,10.32
2017-11-09T15:54:04.039Z,10.34
2017-11-09T15:56:30.716Z,10.35
2017-11-09T15:58:57.388Z,10.40
2017-11-09T16:01:24.997Z,10.36
2017-11-09T16:03:52.444Z,10.36
2017-11-09T16:06:19.155Z,10.27
2017-11-09T16:08:45.864Z,10.33
2017-11-09T16:11:12.558Z,10.35
2017-11-09T16:13:39.232Z,10.36
2017-11-09T16:16:07.019Z,10.21
2017-11-09T16:18:37.725Z,10.24
2017-11-09T16:21:05.163Z,10.01
2017-11-09T16:23:31.859Z,10.08
2017-11-09T16:25:58.522Z,10.18
2017-11-09T16:28:25.180Z,10.25
2017-11-09T16:30:51.888Z,10.25
2017-11-09T16:33:18.556Z,10.22
2017-11-09T16:35:45.276Z,10.18
2017-11-09T16:38:11.983Z,10.24
2017-11-09T16:40:38.891Z,10.21
2017-11-09T16:43:05.616Z,10.25
2017-11-09T16:45:32.505Z,10.23
2017-11-09T16:47:59.222Z,10.14
2017-11-09T16:50:26.861Z,10.25
2017-11-09T16:52:56.383Z,10.28
2017-11-09T16:55:23.070Z,10.25
2017-11-09T16:57:49.789Z,10.29
2017-11-09T17:00:16.495Z,10.28
2017-11-09T17:02:43.914Z,10.12
2017-11-09T17:05:11.570Z,10.18
2017-11-09T17:07:38.391Z,10.18
2017-11-09T17:10:05.299Z,10.12
2017-11-09T17:12:31.979Z,10.17
2017-11-09T17:15:00.727Z,10.18
2017-11-09T17:17:27.409Z,10.13
2017-11-09T17:19:54.484Z,10.19
2017-11-09T17:22:21.274Z,10.22
2017-11-09T17:24:48.080Z,10.03
2017-11-09T17:27:14.832Z,9.87
2017-11-09T17:29:41.743Z,9.81
2017-11-09T17:32:08.477Z,9.97
2017-11-09T17:34:35.264Z,10.06
2017-11-09T17:37:02.106Z,10.05
2017-11-09T17:39:28.801Z,10.06
2017-11-09T17:41:57.151Z,9.99
2017-11-09T17:44:23.928Z,9.85
2017-11-09T17:46:51.406Z,10.02
2017-11-09T17:49:18.925Z,10.07
2017-11-09T17:51:45.649Z,10.03
2017-11-09T17:54:12.360Z,9.82
2017-11-09T17:56:39.063Z,9.83
2017-11-09T17:59:08.722Z,9.97
2017-11-09T18:01:35.465Z,9.98
2017-11-09T18:04:02.217Z,10.00
2017-11-09T18:06:29.047Z,9.87
2017-11-09T18:08:56.452Z,10.04
2017-11-09T18:11:23.127Z,10.00
2017-11-09T18:13:50.598Z,10.03
2017-11-09T18:16:17.303Z,10.06
2017-11-09T18:18:43.995Z,10.07
2017-11-09T18:21:10.714Z,10.11
2017-11-09T18:23:37.394Z,10.13
2017-11-09T18:26:04.086Z,10.16
2017-11-09T18:28:30.818Z,10.14
2017-11-09T18:30:57.508Z,10.19
2017-11-09T18:33:24.945Z,10.04
2017-11-09T18:35:51.733Z,10.03
2017-11-09T18:38:18.427Z,10.06
2017-11-09T18:40:45.110Z,10.09
2017-11-09T18:43:11.833Z,10.10
2017-11-09T18:45:39.264Z,10.04
2017-11-09T18:48:05.946Z,10.02
2017-11-09T18:50:33.708Z,9.87
2017-11-09T18:53:01.180Z,9.77
2017-11-09T18:55:27.960Z,9.80
2017-11-09T18:57:54.674Z,9.77
2017-11-09T19:00:21.378Z,9.79
2017-11-09T19:02:48.136Z,9.77
2017-11-09T19:05:14.859Z,9.84
2017-11-09T19:07:41.559Z,9.85
2017-11-09T19:10:08.276Z,9.80
2017-11-09T19:12:35.711Z,9.78
2017-11-09T19:15:02.404Z,9.75
2017-11-09T19:17:29.146Z,9.75
2017-11-09T19:19:55.832Z,9.87
2017-11-09T19:22:22.489Z,9.78
2017-11-09T19:24:49.241Z,9.67
2017-11-09T19:27:16.740Z,9.75
2017-11-09T19:29:43.427Z,9.67
2017-11-09T19:32:10.138Z,9.73
2017-11-09T19:34:37.172Z,9.67
2017-11-09T19:37:03.864Z,9.49
2017-11-09T19:39:30.591Z,9.47
2017-11-09T19:41:57.335Z,9.64
2017-11-09T19:44:24.024Z,9.70
2017-11-09T19:46:50.767Z,9.70
2017-11-09T19:49:18.263Z,9.63
2017-11-09T19:51:44.996Z,9.47
2017-11-09T19:54:11.725Z,9.66
2017-11-09T19:56:39.181Z,9.72
2017-11-09T19:59:06.619Z,9.69
2017-11-09T20:01:33.313Z,9.61
2017-11-09T20:04:00.083Z,9.53
2017-11-09T20:06:26.746Z,9.54
2017-11-09T20:08:53.439Z,9.55
2017-11-09T20:11:20.144Z,9.47
2017-11-09T20:13:46.892Z,9.64
2017-11-09T20:16:14.419Z,9.58
2017-11-09T20:18:42.188Z,9.57
2017-11-09T20:21:08.883Z,9.54
2017-11-09T20:23:36.317Z,9.62
2017-11-09T20:26:03.052Z,9.58
2017-11-09T20:28:29.760Z,9.56
2017-11-09T20:30:56.449Z,9.45
2017-11-09T20:33:23.196Z,9.35
2017-11-09T20:35:49.908Z,9.15
2017-11-09T20:38:16.592Z,9.33
2017-11-09T20:40:44.119Z,9.36
2017-11-09T20:43:10.854Z,9.49
2017-11-09T20:45:37.592Z,9.36
2017-11-09T20:48:04.332Z,9.40
2017-11-09T20:50:31.892Z,9.14
2017-11-09T20:53:01.701Z,9.05
2017-11-09T20:55:28.448Z,9.12
2017-11-09T20:57:55.156Z,9.05
2017-11-09T21:00:22.600Z,9.02
2017-11-09T21:02:49.352Z,9.09
2017-11-09T21:05:16.104Z,9.03
2017-11-09T21:07:43.559Z,8.95
2017-11-09T21:10:10.284Z,8.93
2017-11-09T21:12:36.964Z,8.96
2017-11-09T21:15:03.726Z,8.97
2017-11-09T21:17:30.501Z,8.80
2017-11-09T21:19:57.177Z,8.86
2017-11-09T21:22:24.668Z,8.86
2017-11-09T21:24:51.386Z,8.75
2017-11-09T21:27:18.845Z,8.67
2017-11-09T21:29:46.267Z,8.66
2017-11-09T21:32:12.992Z,8.86
2017-11-09T21:34:39.725Z,9.04
2017-11-09T21:37:06.457Z,9.07
2017-11-09T21:39:33.899Z,9.13
2017-11-09T21:42:01.354Z,9.14
2017-11-09T21:44:28.062Z,9.01
2017-11-09T21:46:54.808Z,9.15
2017-11-09T21:49:21.511Z,9.20
2017-11-09T21:51:48.239Z,9.21
2017-11-09T21:54:15.683Z,9.31
2017-11-09T21:56:42.360Z,9.33
2017-11-09T21:59:09.114Z,9.21
2017-11-09T22:01:35.834Z,9.26
2017-11-09T22:04:03.291Z,9.37
2017-11-09T22:06:31.057Z,9.36
2017-11-09T22:08:58.489Z,9.43
2017-11-09T22:11:26.015Z,9.32
2017-11-09T22:13:52.713Z,9.41
2017-11-09T22:16:19.473Z,9.47
2017-11-09T22:18:46.913Z,9.48
2017-11-09T22:21:13.664Z,9.40
2017-11-09T22:23:40.426Z,9.43
2017-11-09T22:26:07.946Z,9.38
2017-11-09T22:28:34.606Z,9.42
2017-11-09T22:31:01.288Z,9.46
2017-11-09T22:33:27.955Z,9.38
2017-11-09T22:35:54.678Z,9.29
2017-11-09T22:38:21.377Z,9.34
2017-11-09T22:40:48.053Z,9.34
2017-11-09T22:43:15.508Z,9.30
2017-11-09T22:45:43.049Z,9.31
2017-11-09T22:48:09.759Z,9.39
2017-11-09T22:50:36.424Z,9.43
2017-11-09T22:53:03.115Z,9.45
2017-11-09T22:55:30.543Z,9.47
2017-11-09T22:57:57.237Z,9.51
2017-11-09T23:00:24.083Z,9.29
2017-11-09T23:02:50.733Z,9.24
2017-11-09T23:05:17.430Z,9.33
2017-11-09T23:07:44.908Z,9.23
2017-11-09T23:10:12.368Z,9.39
2017-11-09T23:12:39.163Z,9.24
2017-11-09T23:15:05.864Z,9.10
2017-11-09T23:17:32.628Z,9.16
2017-11-09T23:19:59.348Z,9.17
2017-11-09T23:22:26.047Z,9.20
2017-11-09T23:24:52.720Z,9.19
2017-11-09T23:27:20.140Z,9.11
2017-11-09T23:29:46.885Z,9.01
2017-11-09T23:32:13.565Z,8.94
2017-11-09T23:34:41.020Z,8.76
2017-11-09T23:37:08.479Z,8.96
2017-11-09T23:39:35.247Z,9.15
2017-11-09T23:42:05.007Z,9.27
2017-11-09T23:44:31.722Z,9.31
2017-11-09T23:46:58.537Z,9.35
2017-11-09T23:49:25.245Z,9.31
2017-11-09T23:51:51.919Z,9.37
2017-11-09T23:54:19.348Z,9.40
2017-11-09T23:56:46.010Z,9.37
2017-11-09T23:59:12.771Z,9.37
